Time;durP1;ratioP1;P1;durP2;ratioP2;P2;SDS_P1;SDS_P2;PMS_P1;PMS_P2;Temp;Humidity;BMP_temperature;BMP_pressure;BME280_temperature;BME280_humidity;BME280_pressure;Samples;Min_cycle;Max_cycle;Signal;HPM_P1;HPM_P2
2024/04/20 00:01:17;;;;;;;12.10;11.80;;;;;;;;;;5446335;25;20692;-71
2024/04/20 00:03:46;;;;;;;12.50;12.20;;;;;;;;;;5447939;25;20512;-71
2024/04/20 00:06:16;;;;;;;11.77;11.47;;;;;;;;;;5447110;25;20473;-70
2024/04/20 00:08:49;;;;;;;12.00;11.70;;;;;;;;;;5448557;26;20737;-70
2024/04/20 00:11:19;;;;;;;12.00;11.70;;;;;;;;;;5442986;26;20465;-71
2024/04/20 00:13:51;;;;;;;12.10;11.80;;;;;;;;;;5444877;26;20532;-68
2024/04/20 00:16:19;;;;;;;11.67;11.37;;;;;;;;;;5446638;26;20883;-68
2024/04/20 00:18:49;;;;;;;11.43;11.13;;;;;;;;;;5448586;26;20559;-69
2024/04/20 00:21:18;;;;;;;12.20;11.90;;;;;;;;;;5447497;26;20567;-68
2024/04/20 00:23:50;;;;;;;11.73;11.43;;;;;;;;;;5448996;26;20456;-71
2024/04/20 00:26:19;;;;;;;12.03;11.73;;;;;;;;;;5445841;25;20580;-70
2024/04/20 00:28:48;;;;;;;11.80;11.50;;;;;;;;;;5447651;26;20518;-69
2024/04/20 00:31:17;;;;;;;11.90;11.60;;;;;;;;;;5447053;26;20523;-70
2024/04/20 00:33:46;;;;;;;11.17;10.97;;;;;;;;;;5446285;26;20481;-68
2024/04/20 00:36:16;;;;;;;11.90;11.60;;;;;;;;;;5447673;26;21433;-68
2024/04/20 00:38:45;;;;;;;12.10;11.80;;;;;;;;;;5448218;26;20528;-68
2024/04/20 00:41:16;;;;;;;11.13;10.93;;;;;;;;;;5448889;25;20555;-70
2024/04/20 00:43:45;;;;;;;12.10;11.80;;;;;;;;;;5447912;25;20826;-70
2024/04/20 00:46:14;;;;;;;12.63;12.33;;;;;;;;;;5443506;26;20962;-70
2024/04/20 00:48:43;;;;;;;12.23;11.93;;;;;;;;;;5444425;26;21378;-69
2024/04/20 00:51:12;;;;;;;11.90;11.60;;;;;;;;;;5441388;25;20563;-68
2024/04/20 00:53:39;;;;;;;11.63;11.33;;;;;;;;;;5444215;26;20539;-68
2024/04/20 00:56:08;;;;;;;11.30;11.10;;;;;;;;;;5443910;26;20867;-69
2024/04/20 00:58:40;;;;;;;10.80;10.60;;;;;;;;;;5475640;26;21164;-68
2024/04/20 01:01:08;;;;;;;10.47;10.27;;;;;;;;;;5506820;26;20476;-68
2024/04/20 01:03:37;;;;;;;11.30;11.10;;;;;;;;;;5516730;26;20514;-68
2024/04/20 01:06:06;;;;;;;10.30;10.10;;;;;;;;;;5517216;25;20879;-70
2024/04/20 01:08:36;;;;;;;10.60;10.40;;;;;;;;;;5503236;26;20544;-70
2024/04/20 01:11:04;;;;;;;10.80;10.60;;;;;;;;;;5507530;26;20811;-70
2024/04/20 01:13:33;;;;;;;10.53;10.33;;;;;;;;;;5512719;25;20972;-69
2024/04/20 01:16:05;;;;;;;10.50;10.30;;;;;;;;;;5504856;25;20544;-69
2024/04/20 01:18:35;;;;;;;9.90;9.70;;;;;;;;;;5521755;26;20460;-68
2024/04/20 01:21:04;;;;;;;10.30;10.10;;;;;;;;;;5496143;26;20469;-68
2024/04/20 01:23:34;;;;;;;10.57;10.37;;;;;;;;;;5495294;26;20539;-70
2024/04/20 01:26:06;;;;;;;10.20;10.00;;;;;;;;;;5500958;26;20991;-69
2024/04/20 01:28:36;;;;;;;9.50;9.30;;;;;;;;;;5496040;26;20524;-69
2024/04/20 01:31:05;;;;;;;9.87;9.67;;;;;;;;;;5506119;25;20544;-68
2024/04/20 01:33:34;;;;;;;9.23;9.03;;;;;;;;;;5512136;25;20519;-69
2024/04/20 01:36:03;;;;;;;9.63;9.43;;;;;;;;;;5505898;26;20556;-67
2024/04/20 01:38:53;;;;;;;9.77;9.57;;;;;;;;;;5510064;26;21350;-68
2024/04/20 01:41:25;;;;;;;10.20;10.00;;;;;;;;;;5496122;26;20576;-69
2024/04/20 01:43:53;;;;;;;9.10;8.97;;;;;;;;;;5503473;26;21055;-68
2024/04/20 01:46:23;;;;;;;9.50;9.30;;;;;;;;;;5516995;26;20611;-70
2024/04/20 01:48:51;;;;;;;9.53;9.33;;;;;;;;;;5507007;25;20454;-69
2024/04/20 01:51:21;;;;;;;9.30;9.17;;;;;;;;;;5500023;26;20968;-68
2024/04/20 01:53:50;;;;;;;8.53;8.43;;;;;;;;;;5508587;25;20461;-70
2024/04/20 01:56:18;;;;;;;8.73;8.63;;;;;;;;;;5497424;26;20537;-70
2024/04/20 01:58:49;;;;;;;7.73;7.63;;;;;;;;;;5507131;26;20525;-69
2024/04/20 02:01:18;;;;;;;7.57;7.47;;;;;;;;;;5504609;26;20556;-68
2024/04/20 02:03:47;;;;;;;7.90;7.80;;;;;;;;;;5506191;25;20590;-68
2024/04/20 02:06:16;;;;;;;7.13;7.03;;;;;;;;;;5500021;26;20582;-68
2024/04/20 02:08:45;;;;;;;7.47;7.37;;;;;;;;;;5508320;26;20540;-70
2024/04/20 02:11:14;;;;;;;7.40;7.30;;;;;;;;;;5501018;26;20480;-68
2024/04/20 02:13:43;;;;;;;6.90;6.80;;;;;;;;;;5519404;26;20550;-68
2024/04/20 02:16:15;;;;;;;6.93;6.83;;;;;;;;;;5488987;26;20466;-68
2024/04/20 02:18:44;;;;;;;6.70;6.60;;;;;;;;;;5492760;26;20517;-69
2024/04/20 02:21:18;;;;;;;6.90;6.80;;;;;;;;;;5494507;26;21179;-71
2024/04/20 02:23:47;;;;;;;7.00;6.90;;;;;;;;;;5519957;25;20480;-69
2024/04/20 02:26:16;;;;;;;6.30;6.20;;;;;;;;;;5512036;26;20480;-71
2024/04/20 02:28:45;;;;;;;5.90;5.80;;;;;;;;;;5505019;26;20485;-69
2024/04/20 02:31:17;;;;;;;5.77;5.67;;;;;;;;;;5536308;25;21259;-68
2024/04/20 02:33:46;;;;;;;6.40;6.30;;;;;;;;;;5495096;25;20551;-68
2024/04/20 02:36:16;;;;;;;6.50;6.40;;;;;;;;;;5499407;26;20936;-68
2024/04/20 02:38:45;;;;;;;5.30;5.20;;;;;;;;;;5507885;25;20890;-70
2024/04/20 02:41:15;;;;;;;5.60;5.50;;;;;;;;;;5509096;26;20524;-69
2024/04/20 02:43:43;;;;;;;5.07;5.00;;;;;;;;;;5490992;26;20537;-68
2024/04/20 02:46:12;;;;;;;4.50;4.50;;;;;;;;;;5512744;25;20588;-68
2024/04/20 02:48:45;;;;;;;4.90;4.90;;;;;;;;;;5499099;26;20538;-68
2024/04/20 02:51:15;;;;;;;4.67;4.67;;;;;;;;;;5485516;26;20476;-69
2024/04/20 02:53:44;;;;;;;4.67;4.67;;;;;;;;;;5517490;25;20482;-69
2024/04/20 02:56:13;;;;;;;4.60;4.60;;;;;;;;;;5518446;26;20521;-69
2024/04/20 02:58:42;;;;;;;4.10;4.10;;;;;;;;;;5502375;26;20460;-68
2024/04/20 03:01:13;;;;;;;4.30;4.30;;;;;;;;;;5509960;26;20542;-69
2024/04/20 03:03:45;;;;;;;4.13;4.13;;;;;;;;;;5500261;26;20460;-68
2024/04/20 03:06:15;;;;;;;4.40;4.40;;;;;;;;;;5512380;26;20549;-70
2024/04/20 03:08:44;;;;;;;3.80;3.80;;;;;;;;;;5509605;25;20453;-69
2024/04/20 03:11:13;;;;;;;4.20;4.20;;;;;;;;;;5504989;26;20603;-68
2024/04/20 03:13:43;;;;;;;4.10;4.10;;;;;;;;;;5492107;26;20520;-70
2024/04/20 03:16:13;;;;;;;4.43;4.43;;;;;;;;;;5492265;26;20561;-71
2024/04/20 03:18:44;;;;;;;4.43;4.43;;;;;;;;;;5503319;26;20460;-70
2024/04/20 03:21:13;;;;;;;4.10;4.10;;;;;;;;;;5490320;26;20842;-69
2024/04/20 03:23:42;;;;;;;4.00;4.00;;;;;;;;;;5499114;26;20497;-69
2024/04/20 03:26:11;;;;;;;4.10;4.10;;;;;;;;;;5502448;26;20490;-70
2024/04/20 03:28:41;;;;;;;3.63;3.63;;;;;;;;;;5500270;26;20473;-68
2024/04/20 03:31:10;;;;;;;3.57;3.57;;;;;;;;;;5504527;26;20481;-69
2024/04/20 03:33:39;;;;;;;3.37;3.37;;;;;;;;;;5511832;26;20465;-69
2024/04/20 03:36:10;;;;;;;3.17;3.17;;;;;;;;;;5510751;26;20671;-70
2024/04/20 03:38:39;;;;;;;3.17;3.17;;;;;;;;;;5499958;26;20520;-69
2024/04/20 03:41:09;;;;;;;3.03;3.03;;;;;;;;;;5498264;26;20975;-71
2024/04/20 03:43:38;;;;;;;2.97;2.97;;;;;;;;;;5516738;26;20532;-68
2024/04/20 03:46:07;;;;;;;2.70;2.70;;;;;;;;;;5506403;26;20588;-71
2024/04/20 03:48:36;;;;;;;3.00;3.00;;;;;;;;;;5490764;26;20833;-70
2024/04/20 03:51:05;;;;;;;3.03;3.03;;;;;;;;;;5495614;25;20593;-69
2024/04/20 03:53:37;;;;;;;2.83;2.83;;;;;;;;;;5498707;26;20627;-68
2024/04/20 03:56:06;;;;;;;2.93;2.93;;;;;;;;;;5504351;26;20476;-69
2024/04/20 03:58:35;;;;;;;3.00;3.00;;;;;;;;;;5512891;25;21026;-70
2024/04/20 04:01:04;;;;;;;3.60;3.60;;;;;;;;;;5503887;26;20599;-68
2024/04/20 04:03:33;;;;;;;3.23;3.23;;;;;;;;;;5498444;25;20572;-70
2024/04/20 04:06:03;;;;;;;3.30;3.30;;;;;;;;;;5487326;25;20545;-70
2024/04/20 04:08:32;;;;;;;3.17;3.17;;;;;;;;;;5490313;26;20525;-70
2024/04/20 04:11:04;;;;;;;2.93;2.93;;;;;;;;;;5501456;26;20801;-70
2024/04/20 04:13:33;;;;;;;3.00;3.00;;;;;;;;;;5509267;25;20540;-70
2024/04/20 04:16:02;;;;;;;2.90;2.90;;;;;;;;;;5515683;25;20548;-70
2024/04/20 04:18:31;;;;;;;2.97;2.97;;;;;;;;;;5499638;26;21356;-68
2024/04/20 04:21:00;;;;;;;3.10;3.10;;;;;;;;;;5493083;25;20520;-68
2024/04/20 04:23:29;;;;;;;3.00;3.00;;;;;;;;;;5503096;26;20468;-68
2024/04/20 04:25:55;;;;;;;3.30;3.30;;;;;;;;;;5501508;26;20949;-69
2024/04/20 04:28:27;;;;;;;3.10;3.10;;;;;;;;;;5515467;26;20508;-70
2024/04/20 04:30:56;;;;;;;3.10;3.10;;;;;;;;;;5502205;26;20466;-68
2024/04/20 04:33:25;;;;;;;3.00;3.00;;;;;;;;;;5487007;26;20508;-68
2024/04/20 04:35:58;;;;;;;3.40;3.40;;;;;;;;;;5491698;26;20473;-69
2024/04/20 04:38:27;;;;;;;3.20;3.20;;;;;;;;;;5512578;25;20469;-70
2024/04/20 04:40:56;;;;;;;3.00;3.00;;;;;;;;;;5495357;26;20544;-68
2024/04/20 04:43:28;;;;;;;3.47;3.47;;;;;;;;;;5514979;26;21771;-69
2024/04/20 04:45:57;;;;;;;3.70;3.70;;;;;;;;;;5503455;26;20472;-69
2024/04/20 04:48:28;;;;;;;3.13;3.13;;;;;;;;;;5509840;25;20472;-70
2024/04/20 04:50:57;;;;;;;3.10;3.10;;;;;;;;;;5505484;26;20480;-68
2024/04/20 04:53:26;;;;;;;3.10;3.10;;;;;;;;;;5511457;25;20511;-68
2024/04/20 04:55:55;;;;;;;3.10;3.10;;;;;;;;;;5502381;26;20473;-69
2024/04/20 04:58:24;;;;;;;3.43;3.43;;;;;;;;;;5506910;26;20514;-68
2024/04/20 05:00:56;;;;;;;3.30;3.30;;;;;;;;;;5489171;26;20545;-68
2024/04/20 05:03:25;;;;;;;3.40;3.40;;;;;;;;;;5516570;26;20523;-69
2024/04/20 05:05:54;;;;;;;3.50;3.50;;;;;;;;;;5508142;26;20461;-68
2024/04/20 05:08:26;;;;;;;3.60;3.60;;;;;;;;;;5512107;26;20464;-71
2024/04/20 05:10:55;;;;;;;3.90;3.90;;;;;;;;;;5491009;26;20472;-69
2024/04/20 05:13:24;;;;;;;4.10;4.10;;;;;;;;;;5507662;26;20473;-70
2024/04/20 05:15:56;;;;;;;3.37;3.37;;;;;;;;;;5502435;26;20469;-69
2024/04/20 05:18:26;;;;;;;3.83;3.83;;;;;;;;;;5507047;25;20470;-67
2024/04/20 05:20:55;;;;;;;3.90;3.90;;;;;;;;;;5498715;26;20492;-70
2024/04/20 05:23:24;;;;;;;3.97;3.97;;;;;;;;;;5512948;26;20477;-68
2024/04/20 05:25:53;;;;;;;4.17;4.17;;;;;;;;;;5500414;26;20839;-69
2024/04/20 05:28:24;;;;;;;4.10;4.10;;;;;;;;;;5500661;26;20554;-68
2024/04/20 05:30:55;;;;;;;4.50;4.50;;;;;;;;;;5492632;26;20523;-69
2024/04/20 05:33:24;;;;;;;4.13;4.13;;;;;;;;;;5500352;25;20573;-68
2024/04/20 05:35:53;;;;;;;4.60;4.60;;;;;;;;;;5514651;26;21053;-70
2024/04/20 05:38:23;;;;;;;4.17;4.17;;;;;;;;;;5506630;26;20612;-69
2024/04/20 05:40:52;;;;;;;4.50;4.50;;;;;;;;;;5510847;26;20452;-70
2024/04/20 05:43:20;;;;;;;4.70;4.70;;;;;;;;;;5520254;25;20617;-71
2024/04/20 05:45:49;;;;;;;5.03;5.03;;;;;;;;;;5501365;26;20470;-69
2024/04/20 05:48:21;;;;;;;5.00;5.00;;;;;;;;;;5511209;25;20468;-68
2024/04/20 05:50:50;;;;;;;5.20;5.10;;;;;;;;;;5509469;26;20611;-69
2024/04/20 05:53:19;;;;;;;5.33;5.23;;;;;;;;;;5508475;25;20545;-69
2024/04/20 05:55:47;;;;;;;5.50;5.40;;;;;;;;;;5498322;26;20548;-70
2024/04/20 05:58:16;;;;;;;5.40;5.30;;;;;;;;;;5507857;26;20478;-70
2024/04/20 06:00:46;;;;;;;4.87;4.87;;;;;;;;;;5499960;26;20634;-70
2024/04/20 06:03:15;;;;;;;5.20;5.10;;;;;;;;;;5501519;25;20793;-69
2024/04/20 06:05:48;;;;;;;4.90;4.90;;;;;;;;;;5511652;26;20477;-70
2024/04/20 06:08:17;;;;;;;4.60;4.60;;;;;;;;;;5497958;26;20833;-69
2024/04/20 06:10:54;;;;;;;4.23;4.23;;;;;;;;;;5498558;26;20573;-68
2024/04/20 06:13:24;;;;;;;4.80;4.80;;;;;;;;;;5494328;26;20670;-68
2024/04/20 06:15:53;;;;;;;4.63;4.63;;;;;;;;;;5502914;26;20614;-68
2024/04/20 06:18:22;;;;;;;4.80;4.80;;;;;;;;;;5498541;25;20811;-70
2024/04/20 06:20:54;;;;;;;5.60;5.50;;;;;;;;;;5507207;25;20523;-70
2024/04/20 06:23:23;;;;;;;5.47;5.37;;;;;;;;;;5503527;26;21075;-71
2024/04/20 06:25:53;;;;;;;5.90;5.80;;;;;;;;;;5498872;26;20538;-69
2024/04/20 06:28:22;;;;;;;6.17;6.07;;;;;;;;;;5503206;26;20476;-71
2024/04/20 06:30:52;;;;;;;5.80;5.70;;;;;;;;;;5503325;26;21011;-69
2024/04/20 06:33:21;;;;;;;6.40;6.30;;;;;;;;;;5502211;26;20466;-70
2024/04/20 06:35:51;;;;;;;6.47;6.37;;;;;;;;;;5518188;25;20510;-70
2024/04/20 06:38:23;;;;;;;6.43;6.33;;;;;;;;;;5494944;26;21021;-69
2024/04/20 06:40:52;;;;;;;6.47;6.37;;;;;;;;;;5505168;26;20535;-71
2024/04/20 06:43:21;;;;;;;7.00;6.90;;;;;;;;;;5515422;25;20447;-70
2024/04/20 06:45:50;;;;;;;7.30;7.20;;;;;;;;;;5496819;25;20605;-69
2024/04/20 06:48:19;;;;;;;7.20;7.10;;;;;;;;;;5500134;25;21978;-69
2024/04/20 06:50:48;;;;;;;7.60;7.50;;;;;;;;;;5496840;26;20492;-70
2024/04/20 06:53:17;;;;;;;6.77;6.67;;;;;;;;;;5499616;26;20478;-71
2024/04/20 06:55:59;;;;;;;7.50;7.40;;;;;;;;;;5495365;26;20481;-69
2024/04/20 06:58:28;;;;;;;7.73;7.63;;;;;;;;;;5514848;25;21344;-69
2024/04/20 07:00:57;;;;;;;7.63;7.53;;;;;;;;;;5502253;26;20476;-72
2024/04/20 07:03:26;;;;;;;8.00;7.90;;;;;;;;;;5512773;26;20473;-70
2024/04/20 07:05:56;;;;;;;8.77;8.67;;;;;;;;;;5504693;26;20834;-69
2024/04/20 07:08:27;;;;;;;8.07;7.97;;;;;;;;;;5497799;25;20644;-69
2024/04/20 07:11:01;;;;;;;8.30;8.20;;;;;;;;;;5499668;25;20569;-70
2024/04/20 07:13:32;;;;;;;8.20;8.10;;;;;;;;;;5506901;26;20450;-69
2024/04/20 07:16:01;;;;;;;8.63;8.53;;;;;;;;;;5500018;26;20581;-70
2024/04/20 07:18:31;;;;;;;9.27;9.07;;;;;;;;;;5504164;26;20497;-72
2024/04/20 07:21:00;;;;;;;9.23;9.03;;;;;;;;;;5508701;26;20630;-69
2024/04/20 07:23:29;;;;;;;9.13;8.93;;;;;;;;;;5501519;26;20539;-72
2024/04/20 07:26:04;;;;;;;9.90;9.70;;;;;;;;;;5499078;26;21021;-72
2024/04/20 07:28:34;;;;;;;9.77;9.57;;;;;;;;;;5501271;26;20471;-70
2024/04/20 07:31:03;;;;;;;9.63;9.43;;;;;;;;;;5505833;25;20516;-70
2024/04/20 07:33:32;;;;;;;9.50;9.30;;;;;;;;;;5500647;25;20839;-71
2024/04/20 07:36:01;;;;;;;9.03;8.83;;;;;;;;;;5524245;25;20513;-69
2024/04/20 07:38:30;;;;;;;10.07;9.87;;;;;;;;;;5516409;26;20659;-69
2024/04/20 07:41:00;;;;;;;11.07;10.77;;;;;;;;;;5499201;26;20473;-71
2024/04/20 07:43:32;;;;;;;12.30;11.90;;;;;;;;;;5491212;26;20907;-68
2024/04/20 07:46:02;;;;;;;12.00;11.70;;;;;;;;;;5515527;26;20481;-69
2024/04/20 07:48:30;;;;;;;10.80;10.50;;;;;;;;;;5505933;26;20536;-71
2024/04/20 07:50:59;;;;;;;10.10;9.90;;;;;;;;;;5510976;26;20543;-69
2024/04/20 07:53:28;;;;;;;10.37;10.17;;;;;;;;;;5505136;26;21037;-69
2024/04/20 07:55:57;;;;;;;9.60;9.40;;;;;;;;;;5501809;26;20492;-71
2024/04/20 07:58:25;;;;;;;8.80;8.70;;;;;;;;;;5471309;26;20540;-69
2024/04/20 08:00:58;;;;;;;8.73;8.63;;;;;;;;;;5492038;26;20590;-69
2024/04/20 08:03:27;;;;;;;8.53;8.43;;;;;;;;;;5515672;25;20516;-70
2024/04/20 08:05:57;;;;;;;9.90;9.70;;;;;;;;;;5510051;26;20470;-69
2024/04/20 08:08:28;;;;;;;9.70;9.50;;;;;;;;;;5487169;26;20713;-69
2024/04/20 08:10:56;;;;;;;9.60;9.40;;;;;;;;;;5502557;25;20505;-71
2024/04/20 08:13:25;;;;;;;9.80;9.60;;;;;;;;;;5514875;26;20471;-71
2024/04/20 08:15:54;;;;;;;10.50;10.30;;;;;;;;;;5486949;26;20560;-72
2024/04/20 08:18:26;;;;;;;10.33;10.13;;;;;;;;;;5499153;26;20525;-71
2024/04/20 08:20:54;;;;;;;10.40;10.20;;;;;;;;;;5497852;25;20487;-70
2024/04/20 08:23:23;;;;;;;10.67;10.47;;;;;;;;;;5506538;25;20567;-71
2024/04/20 08:25:53;;;;;;;11.60;11.30;;;;;;;;;;5510233;26;20515;-69
2024/04/20 08:28:22;;;;;;;12.50;12.10;;;;;;;;;;5511455;25;20868;-70
2024/04/20 08:30:52;;;;;;;12.70;12.30;;;;;;;;;;5493330;26;20496;-69
2024/04/20 08:33:20;;;;;;;12.57;12.17;;;;;;;;;;5501670;26;20733;-69
2024/04/20 08:35:52;;;;;;;12.87;12.47;;;;;;;;;;5502823;26;20601;-70
2024/04/20 08:38:22;;;;;;;12.60;12.20;;;;;;;;;;5498621;26;20528;-69
2024/04/20 08:40:54;;;;;;;12.77;12.37;;;;;;;;;;5514330;26;20591;-70
2024/04/20 08:43:24;;;;;;;12.67;12.27;;;;;;;;;;5514682;26;20505;-69
2024/04/20 08:45:55;;;;;;;12.47;12.13;;;;;;;;;;5510729;26;20537;-71
2024/04/20 08:48:25;;;;;;;12.30;12.00;;;;;;;;;;5499007;26;20474;-72
2024/04/20 08:51:01;;;;;;;13.10;12.70;;;;;;;;;;5508024;26;20475;-70
2024/04/20 08:53:31;;;;;;;13.20;12.80;;;;;;;;;;5509484;25;21357;-72
2024/04/20 08:56:00;;;;;;;12.27;11.97;;;;;;;;;;5511241;26;20481;-70
2024/04/20 08:58:29;;;;;;;13.17;12.77;;;;;;;;;;5505539;26;20489;-69
2024/04/20 09:01:00;;;;;;;12.93;12.53;;;;;;;;;;5505099;26;20526;-71
2024/04/20 09:03:31;;;;;;;13.13;12.73;;;;;;;;;;5513476;25;20470;-70
2024/04/20 09:06:03;;;;;;;13.20;12.80;;;;;;;;;;5502527;26;20482;-70
2024/04/20 09:08:33;;;;;;;13.00;12.60;;;;;;;;;;5507951;26;20526;-71
2024/04/20 09:11:03;;;;;;;12.60;12.20;;;;;;;;;;5517050;26;20911;-70
2024/04/20 09:13:32;;;;;;;12.87;12.47;;;;;;;;;;5513565;26;21109;-70
2024/04/20 09:16:01;;;;;;;13.27;12.87;;;;;;;;;;5493831;26;20471;-70
2024/04/20 09:18:31;;;;;;;13.10;12.70;;;;;;;;;;5502695;26;21173;-71
2024/04/20 09:21:02;;;;;;;12.93;12.53;;;;;;;;;;5499264;25;21108;-70
2024/04/20 09:23:31;;;;;;;13.30;12.90;;;;;;;;;;5508267;26;20588;-70
2024/04/20 09:26:01;;;;;;;12.90;12.50;;;;;;;;;;5501321;25;21099;-70
2024/04/20 09:28:32;;;;;;;13.00;12.60;;;;;;;;;;5520219;26;20461;-70
2024/04/20 09:31:01;;;;;;;12.97;12.57;;;;;;;;;;5501355;26;20695;-70
2024/04/20 09:33:31;;;;;;;13.73;13.33;;;;;;;;;;5503276;26;21011;-70
2024/04/20 09:35:59;;;;;;;14.03;13.53;;;;;;;;;;5497421;26;20482;-70
2024/04/20 09:38:29;;;;;;;14.10;13.60;;;;;;;;;;5509524;25;20689;-69
2024/04/20 09:40:59;;;;;;;14.20;13.70;;;;;;;;;;5499340;25;20515;-71
2024/04/20 09:43:28;;;;;;;12.73;12.33;;;;;;;;;;5519347;26;20593;-70
2024/04/20 09:45:59;;;;;;;13.43;13.03;;;;;;;;;;5504823;26;20460;-70
2024/04/20 09:48:28;;;;;;;13.10;12.70;;;;;;;;;;5496918;25;20543;-70
2024/04/20 09:51:02;;;;;;;13.10;12.70;;;;;;;;;;5512696;26;20457;-70
2024/04/20 09:53:36;;;;;;;13.07;12.67;;;;;;;;;;5497662;25;20548;-70
2024/04/20 09:56:06;;;;;;;13.50;13.10;;;;;;;;;;5512214;25;20936;-72
2024/04/20 09:58:36;;;;;;;13.07;12.67;;;;;;;;;;5497904;26;20524;-69
2024/04/20 10:01:07;;;;;;;13.50;13.10;;;;;;;;;;5496328;26;21385;-70
2024/04/20 10:03:36;;;;;;;13.57;13.17;;;;;;;;;;5511090;25;20522;-70
2024/04/20 10:06:05;;;;;;;13.30;12.90;;;;;;;;;;5498586;26;20487;-69
2024/04/20 10:08:38;;;;;;;13.43;13.03;;;;;;;;;;5506488;26;20477;-70
2024/04/20 10:11:08;;;;;;;13.57;13.17;;;;;;;;;;5513446;25;21102;-72
2024/04/20 10:13:38;;;;;;;13.50;13.10;;;;;;;;;;5516390;25;20489;-70
2024/04/20 10:16:07;;;;;;;13.63;13.23;;;;;;;;;;5512051;25;20605;-73
2024/04/20 10:18:36;;;;;;;13.53;13.13;;;;;;;;;;5499276;25;20464;-71
2024/04/20 10:21:05;;;;;;;13.50;13.10;;;;;;;;;;5499137;26;20599;-70
2024/04/20 10:23:34;;;;;;;13.10;12.70;;;;;;;;;;5503799;26;20534;-71
2024/04/20 10:26:06;;;;;;;13.40;13.00;;;;;;;;;;5507098;26;20510;-71
2024/04/20 10:28:35;;;;;;;13.20;12.80;;;;;;;;;;5490927;26;20546;-71
2024/04/20 10:31:04;;;;;;;13.20;12.80;;;;;;;;;;5500458;26;20890;-71
2024/04/20 10:33:33;;;;;;;13.50;13.10;;;;;;;;;;5496288;26;20532;-71
2024/04/20 10:36:06;;;;;;;14.37;13.87;;;;;;;;;;5512297;25;20492;-70
2024/04/20 10:38:36;;;;;;;13.87;13.47;;;;;;;;;;5518024;26;20536;-71
2024/04/20 10:41:18;;;;;;;14.43;13.93;;;;;;;;;;5506120;26;20504;-71
2024/04/20 10:43:44;;;;;;;14.10;13.70;;;;;;;;;;5510892;26;20536;-71
2024/04/20 10:46:13;;;;;;;13.80;13.40;;;;;;;;;;5509221;25;20898;-70
2024/04/20 10:48:42;;;;;;;13.70;13.30;;;;;;;;;;5504173;26;20596;-70
2024/04/20 10:51:12;;;;;;;13.83;13.43;;;;;;;;;;5519711;25;20458;-70
2024/04/20 10:53:41;;;;;;;14.27;13.77;;;;;;;;;;5495724;25;20546;-70
2024/04/20 10:56:11;;;;;;;13.40;13.00;;;;;;;;;;5498973;26;20467;-70
2024/04/20 10:58:43;;;;;;;13.80;13.40;;;;;;;;;;5510245;25;21087;-70
2024/04/20 11:01:10;;;;;;;13.23;12.83;;;;;;;;;;5500826;25;20921;-73
2024/04/20 11:03:39;;;;;;;13.77;13.37;;;;;;;;;;5512306;25;20468;-73
2024/04/20 11:06:08;;;;;;;12.93;12.53;;;;;;;;;;5507779;26;20547;-72
2024/04/20 11:08:42;;;;;;;13.50;13.10;;;;;;;;;;5518218;26;20516;-70
2024/04/20 11:11:11;;;;;;;13.87;13.47;;;;;;;;;;5516024;26;20519;-70
2024/04/20 11:13:43;;;;;;;14.13;13.63;;;;;;;;;;5513742;26;20453;-70
2024/04/20 11:16:12;;;;;;;14.17;13.67;;;;;;;;;;5512071;26;20469;-70
2024/04/20 11:18:44;;;;;;;26.90;25.00;;;;;;;;;;5494334;26;21089;-68
2024/04/20 11:21:14;;;;;;;29.27;26.97;;;;;;;;;;5511500;26;20538;-72
2024/04/20 11:23:44;;;;;;;25.00;23.10;;;;;;;;;;5505093;25;20475;-69
2024/04/20 11:26:13;;;;;;;22.67;21.07;;;;;;;;;;5511778;26;20555;-73
2024/04/20 11:28:45;;;;;;;21.27;19.87;;;;;;;;;;5493964;26;20600;-71
2024/04/20 11:31:15;;;;;;;23.93;22.13;;;;;;;;;;5497825;25;20559;-71
2024/04/20 11:33:48;;;;;;;23.47;21.77;;;;;;;;;;5522875;25;20514;-71
2024/04/20 11:36:18;;;;;;;25.40;23.40;;;;;;;;;;5502028;25;20477;-71
2024/04/20 11:38:47;;;;;;;24.60;22.80;;;;;;;;;;5504708;26;20470;-72
2024/04/20 11:41:24;;;;;;;24.40;22.60;;;;;;;;;;5514653;26;20506;-72
2024/04/20 11:44:06;;;;;;;22.10;20.60;;;;;;;;;;5502254;26;20596;-72
2024/04/20 11:46:40;;;;;;;22.80;21.40;;;;;;;;;;5513397;25;20907;-70
2024/04/20 11:49:12;;;;;;;21.20;20.00;;;;;;;;;;5513912;26;21086;-69
2024/04/20 11:54:28;;;;;;;18.70;17.77;;;;;;;;;;5504975;26;21130;-70
2024/04/20 11:56:57;;;;;;;19.20;18.20;;;;;;;;;;5506427;26;20470;-69
2024/04/20 11:59:32;;;;;;;18.17;17.30;;;;;;;;;;5505586;25;20543;-70
2024/04/20 12:02:01;;;;;;;18.10;17.20;;;;;;;;;;5501835;26;20555;-69
2024/04/20 12:04:30;;;;;;;19.53;18.53;;;;;;;;;;5517915;26;20997;-69
2024/04/20 12:06:59;;;;;;;19.03;18.13;;;;;;;;;;5502213;25;20891;-70
2024/04/20 12:09:28;;;;;;;18.50;17.60;;;;;;;;;;5512805;25;20936;-69
2024/04/20 12:11:57;;;;;;;19.13;18.13;;;;;;;;;;5500127;26;20576;-71
2024/04/20 12:14:29;;;;;;;17.67;16.87;;;;;;;;;;5496368;26;20555;-69
2024/04/20 12:16:58;;;;;;;19.03;18.13;;;;;;;;;;5506343;26;20462;-72
2024/04/20 12:19:27;;;;;;;18.80;17.90;;;;;;;;;;5502724;26;20603;-70
2024/04/20 12:21:57;;;;;;;19.20;18.30;;;;;;;;;;5507310;26;20605;-70
2024/04/20 12:24:26;;;;;;;18.73;17.83;;;;;;;;;;5502883;26;21060;-70
2024/04/20 12:26:55;;;;;;;19.37;18.37;;;;;;;;;;5509568;26;20481;-70
2024/04/20 12:29:24;;;;;;;18.57;17.67;;;;;;;;;;5508201;26;20529;-72
2024/04/20 12:31:56;;;;;;;18.93;18.03;;;;;;;;;;5501359;25;21050;-69
2024/04/20 12:34:25;;;;;;;16.73;16.03;;;;;;;;;;5506148;26;21006;-71
2024/04/20 12:36:54;;;;;;;16.70;16.00;;;;;;;;;;5516609;25;21094;-69
2024/04/20 12:39:23;;;;;;;15.70;15.10;;;;;;;;;;5502769;26;20599;-71
2024/04/20 12:41:52;;;;;;;15.53;14.93;;;;;;;;;;5504612;26;20525;-72
2024/04/20 12:44:22;;;;;;;15.90;15.30;;;;;;;;;;5499213;26;20487;-70
2024/04/20 12:46:50;;;;;;;14.57;14.07;;;;;;;;;;5504172;25;20466;-70
2024/04/20 12:49:22;;;;;;;14.80;14.30;;;;;;;;;;5516208;25;21031;-69
2024/04/20 12:51:51;;;;;;;15.50;14.90;;;;;;;;;;5506479;25;21080;-70
2024/04/20 12:54:22;;;;;;;15.10;14.60;;;;;;;;;;5504481;25;20841;-69
2024/04/20 12:56:51;;;;;;;15.67;15.07;;;;;;;;;;5509682;26;20525;-68
2024/04/20 12:59:20;;;;;;;14.90;14.40;;;;;;;;;;5497827;25;20535;-71
2024/04/20 13:01:50;;;;;;;15.97;15.37;;;;;;;;;;5510134;26;20598;-71
2024/04/20 13:04:19;;;;;;;18.80;18.00;;;;;;;;;;5508038;26;20467;-71
2024/04/20 13:06:51;;;;;;;20.30;19.30;;;;;;;;;;5520347;25;20472;-70
2024/04/20 13:09:20;;;;;;;19.80;18.80;;;;;;;;;;5503146;26;20555;-68
2024/04/20 13:11:49;;;;;;;20.40;19.30;;;;;;;;;;5504541;26;20475;-71
2024/04/20 13:14:18;;;;;;;28.00;25.80;;;;;;;;;;5503671;26;20523;-70
2024/04/20 13:16:47;;;;;;;27.67;25.47;;;;;;;;;;5501001;26;20506;-69
2024/04/20 13:19:18;;;;;;;26.97;24.87;;;;;;;;;;5509364;25;20481;-70
2024/04/20 13:21:47;;;;;;;23.47;21.77;;;;;;;;;;5498745;25;20525;-70
2024/04/20 13:24:19;;;;;;;23.50;21.90;;;;;;;;;;5508824;25;21138;-68
2024/04/20 13:26:48;;;;;;;23.53;21.93;;;;;;;;;;5490563;25;20640;-69
2024/04/20 13:29:17;;;;;;;24.30;22.70;;;;;;;;;;5515340;26;20476;-70
2024/04/20 13:31:46;;;;;;;21.90;20.60;;;;;;;;;;5500951;26;21441;-69
2024/04/20 13:34:15;;;;;;;21.33;20.13;;;;;;;;;;5504206;25;20456;-69
2024/04/20 13:36:45;;;;;;;21.67;20.37;;;;;;;;;;5511399;25;20464;-69
2024/04/20 13:39:15;;;;;;;22.90;21.60;;;;;;;;;;5503271;25;20556;-70
2024/04/20 13:41:47;;;;;;;21.97;20.67;;;;;;;;;;5513514;26;20507;-70
2024/04/20 13:44:16;;;;;;;21.70;20.47;;;;;;;;;;5500338;25;20464;-69
2024/04/20 13:46:45;;;;;;;21.17;19.97;;;;;;;;;;5505218;25;20517;-72
2024/04/20 13:49:13;;;;;;;21.47;20.17;;;;;;;;;;5501467;26;21078;-70
2024/04/20 13:51:44;;;;;;;20.40;19.27;;;;;;;;;;5492162;26;20552;-68
2024/04/20 13:54:13;;;;;;;20.63;19.43;;;;;;;;;;5495462;26;20581;-69
2024/04/20 13:56:42;;;;;;;22.50;21.20;;;;;;;;;;5509046;25;20525;-70
2024/04/20 13:59:15;;;;;;;21.00;19.90;;;;;;;;;;5509126;26;20475;-69
2024/04/20 14:01:44;;;;;;;18.83;17.83;;;;;;;;;;5507663;26;20578;-69
2024/04/20 14:04:13;;;;;;;18.77;17.87;;;;;;;;;;5497611;26;20500;-70
2024/04/20 14:06:42;;;;;;;18.57;17.67;;;;;;;;;;5502939;25;20571;-72
2024/04/20 14:09:11;;;;;;;18.53;17.63;;;;;;;;;;5514232;25;20513;-69
2024/04/20 14:11:40;;;;;;;18.57;17.77;;;;;;;;;;5502915;26;20543;-70
2024/04/20 14:14:09;;;;;;;16.67;15.97;;;;;;;;;;5507506;26;20997;-69
2024/04/20 14:16:40;;;;;;;15.63;15.03;;;;;;;;;;5508279;26;20542;-71
2024/04/20 14:19:09;;;;;;;15.77;15.17;;;;;;;;;;5502442;26;20480;-70
2024/04/20 14:21:38;;;;;;;16.30;15.70;;;;;;;;;;5510702;26;20970;-68
2024/04/20 14:24:10;;;;;;;15.27;14.77;;;;;;;;;;5514748;26;20579;-70
2024/04/20 14:26:39;;;;;;;15.13;14.63;;;;;;;;;;5505333;26;20538;-70
2024/04/20 14:29:08;;;;;;;16.50;15.83;;;;;;;;;;5510736;25;20487;-69
2024/04/20 14:31:37;;;;;;;17.03;16.33;;;;;;;;;;5510026;25;20903;-69
2024/04/20 14:34:09;;;;;;;16.50;15.90;;;;;;;;;;5497844;26;20593;-71
2024/04/20 14:36:38;;;;;;;16.37;15.77;;;;;;;;;;5509056;25;21314;-70
2024/04/20 14:39:07;;;;;;;16.57;15.87;;;;;;;;;;5503803;26;20488;-69
2024/04/20 14:41:36;;;;;;;16.43;15.83;;;;;;;;;;5504467;26;20564;-68
2024/04/20 14:44:05;;;;;;;16.13;15.53;;;;;;;;;;5503392;26;20627;-72
2024/04/20 14:46:37;;;;;;;16.20;15.60;;;;;;;;;;5506578;25;20473;-68